sensor_id;sensor_type;location;lat;lon;timestamp;pressure;altitude;pressure_sealevel;temperature;humidity
706;BME280;21234;48.690;9.016;2022-11-24T00:02:21;95401.47;;;5.15;100.00
706;BME280;21234;48.690;9.016;2022-11-24T00:04:48;95404.53;;;5.18;100.00
706;BME280;21234;48.690;9.016;2022-11-24T00:07:14;95400.28;;;5.22;100.00
706;BME280;21234;48.690;9.016;2022-11-24T00:09:41;95404.03;;;5.21;100.00
706;BME280;21234;48.690;9.016;2022-11-24T00:12:09;95405.66;;;5.22;100.00
706;BME280;21234;48.690;9.016;2022-11-24T00:14:36;95398.09;;;5.19;100.00
706;BME280;21234;48.690;9.016;2022-11-24T00:17:02;95406.06;;;5.14;100.00
706;BME280;21234;48.690;9.016;2022-11-24T00:19:29;95414.59;;;5.11;100.00
706;BME280;21234;48.690;9.016;2022-11-24T00:21:56;95403.47;;;5.07;100.00
706;BME280;21234;48.690;9.016;2022-11-24T00:24:23;95414.72;;;5.04;100.00
706;BME280;21234;48.690;9.016;2022-11-24T00:26:49;95407.69;;;5.03;100.00
706;BME280;21234;48.690;9.016;2022-11-24T00:29:17;95413.44;;;5.07;100.00
706;BME280;21234;48.690;9.016;2022-11-24T00:31:44;95415.41;;;5.12;100.00
706;BME280;21234;48.690;9.016;2022-11-24T00:34:12;95421.75;;;5.17;100.00
706;BME280;21234;48.690;9.016;2022-11-24T00:36:40;95421.00;;;5.22;100.00
706;BME280;21234;48.690;9.016;2022-11-24T00:39:10;95429.31;;;5.20;100.00
706;BME280;21234;48.690;9.016;2022-11-24T00:41:37;95425.09;;;5.24;100.00
706;BME280;21234;48.690;9.016;2022-11-24T00:44:04;95437.19;;;5.22;100.00
706;BME280;21234;48.690;9.016;2022-11-24T00:46:32;95435.81;;;5.19;100.00
706;BME280;21234;48.690;9.016;2022-11-24T00:48:59;95437.31;;;5.15;100.00
706;BME280;21234;48.690;9.016;2022-11-24T00:51:27;95450.34;;;5.18;100.00
706;BME280;21234;48.690;9.016;2022-11-24T00:53:54;95450.81;;;5.15;100.00
706;BME280;21234;48.690;9.016;2022-11-24T00:56:21;95444.25;;;5.11;100.00
706;BME280;21234;48.690;9.016;2022-11-24T00:58:48;95447.28;;;5.15;100.00
706;BME280;21234;48.690;9.016;2022-11-24T01:01:18;95453.03;;;5.18;100.00
706;BME280;21234;48.690;9.016;2022-11-24T01:03:46;95453.94;;;5.24;100.00
706;BME280;21234;48.690;9.016;2022-11-24T01:06:14;95452.41;;;5.28;100.00
706;BME280;21234;48.690;9.016;2022-11-24T01:08:42;95459.19;;;5.30;100.00
706;BME280;21234;48.690;9.016;2022-11-24T01:11:11;95456.84;;;5.34;100.00
706;BME280;21234;48.690;9.016;2022-11-24T01:13:38;95460.25;;;5.29;100.00
706;BME280;21234;48.690;9.016;2022-11-24T01:16:05;95462.13;;;5.29;100.00
706;BME280;21234;48.690;9.016;2022-11-24T01:18:32;95464.59;;;5.30;100.00
706;BME280;21234;48.690;9.016;2022-11-24T01:21:03;95472.66;;;5.30;100.00
706;BME280;21234;48.690;9.016;2022-11-24T01:23:30;95482.75;;;5.23;100.00
706;BME280;21234;48.690;9.016;2022-11-24T01:25:57;95479.34;;;5.28;100.00
706;BME280;21234;48.690;9.016;2022-11-24T01:28:24;95482.97;;;5.22;100.00
706;BME280;21234;48.690;9.016;2022-11-24T01:30:56;95496.47;;;5.22;100.00
706;BME280;21234;48.690;9.016;2022-11-24T01:33:23;95496.81;;;5.25;100.00
706;BME280;21234;48.690;9.016;2022-11-24T01:35:49;95492.13;;;5.32;100.00
706;BME280;21234;48.690;9.016;2022-11-24T01:38:17;95501.97;;;5.27;100.00
706;BME280;21234;48.690;9.016;2022-11-24T01:40:44;95493.41;;;5.30;100.00
706;BME280;21234;48.690;9.016;2022-11-24T01:43:15;95505.94;;;5.24;100.00
706;BME280;21234;48.690;9.016;2022-11-24T01:45:43;95501.38;;;5.25;100.00
706;BME280;21234;48.690;9.016;2022-11-24T01:48:15;95500.56;;;5.24;100.00
706;BME280;21234;48.690;9.016;2022-11-24T01:50:44;95500.91;;;5.28;100.00
706;BME280;21234;48.690;9.016;2022-11-24T01:53:13;95500.31;;;5.37;100.00
706;BME280;21234;48.690;9.016;2022-11-24T01:55:41;95504.78;;;5.44;100.00
706;BME280;21234;48.690;9.016;2022-11-24T01:58:10;95508.06;;;5.46;100.00
706;BME280;21234;48.690;9.016;2022-11-24T02:00:40;95504.53;;;5.45;100.00
706;BME280;21234;48.690;9.016;2022-11-24T02:03:09;95513.44;;;5.46;100.00
706;BME280;21234;48.690;9.016;2022-11-24T02:05:42;95510.50;;;5.47;100.00
706;BME280;21234;48.690;9.016;2022-11-24T02:08:14;95506.41;;;5.45;100.00
706;BME280;21234;48.690;9.016;2022-11-24T02:10:44;95510.41;;;5.42;100.00
706;BME280;21234;48.690;9.016;2022-11-24T02:13:12;95509.22;;;5.38;100.00
706;BME280;21234;48.690;9.016;2022-11-24T02:15:39;95517.31;;;5.38;100.00
706;BME280;21234;48.690;9.016;2022-11-24T02:18:06;95513.09;;;5.42;100.00
706;BME280;21234;48.690;9.016;2022-11-24T02:20:33;95510.06;;;5.38;100.00
706;BME280;21234;48.690;9.016;2022-11-24T02:23:04;95512.16;;;5.36;100.00
706;BME280;21234;48.690;9.016;2022-11-24T02:25:38;95513.81;;;5.37;100.00
706;BME280;21234;48.690;9.016;2022-11-24T02:28:13;95515.31;;;5.33;100.00
706;BME280;21234;48.690;9.016;2022-11-24T02:30:41;95509.81;;;5.40;100.00
706;BME280;21234;48.690;9.016;2022-11-24T02:33:08;95511.69;;;5.39;100.00
706;BME280;21234;48.690;9.016;2022-11-24T02:35:35;95507.47;;;5.44;100.00
706;BME280;21234;48.690;9.016;2022-11-24T02:38:02;95502.09;;;5.44;100.00
706;BME280;21234;48.690;9.016;2022-11-24T02:40:29;95503.97;;;5.43;100.00
706;BME280;21234;48.690;9.016;2022-11-24T02:43:00;95506.31;;;5.39;100.00
706;BME280;21234;48.690;9.016;2022-11-24T02:45:31;95503.84;;;5.38;100.00
706;BME280;21234;48.690;9.016;2022-11-24T02:47:57;95506.41;;;5.45;100.00
706;BME280;21234;48.690;9.016;2022-11-24T02:50:24;95511.69;;;5.39;100.00
706;BME280;21234;48.690;9.016;2022-11-24T02:52:51;95517.09;;;5.39;100.00
706;BME280;21234;48.690;9.016;2022-11-24T02:55:17;95528.44;;;5.42;100.00
706;BME280;21234;48.690;9.016;2022-11-24T02:57:44;95521.41;;;5.40;100.00
706;BME280;21234;48.690;9.016;2022-11-24T03:00:12;95532.66;;;5.37;100.00
706;BME280;21234;48.690;9.016;2022-11-24T03:02:40;95532.31;;;5.34;100.00
706;BME280;21234;48.690;9.016;2022-11-24T03:05:07;95530.44;;;5.34;100.00
706;BME280;21234;48.690;9.016;2022-11-24T03:07:36;95534.78;;;5.35;100.00
706;BME280;21234;48.690;9.016;2022-11-24T03:10:03;95528.09;;;5.38;100.00
706;BME280;21234;48.690;9.016;2022-11-24T03:12:30;95541.34;;;5.39;100.00
706;BME280;21234;48.690;9.016;2022-11-24T03:14:57;95537.59;;;5.40;100.00
706;BME280;21234;48.690;9.016;2022-11-24T03:17:23;95540.63;;;5.44;100.00
706;BME280;21234;48.690;9.016;2022-11-24T03:19:52;95535.00;;;5.46;100.00
706;BME280;21234;48.690;9.016;2022-11-24T03:22:18;95539.94;;;5.49;100.00
706;BME280;21234;48.690;9.016;2022-11-24T03:24:45;95542.97;;;5.40;100.00
706;BME280;21234;48.690;9.016;2022-11-24T03:27:11;95540.28;;;5.40;100.00
706;BME280;21234;48.690;9.016;2022-11-24T03:29:38;95541.00;;;5.36;100.00
706;BME280;21234;48.690;9.016;2022-11-24T03:32:05;95546.72;;;5.39;100.00
706;BME280;21234;48.690;9.016;2022-11-24T03:34:32;95547.19;;;5.36;100.00
706;BME280;21234;48.690;9.016;2022-11-24T03:37:00;95551.78;;;5.36;100.00
706;BME280;21234;48.690;9.016;2022-11-24T03:39:26;95553.88;;;5.34;100.00
706;BME280;21234;48.690;9.016;2022-11-24T03:41:53;95557.97;;;5.36;100.00
706;BME280;21234;48.690;9.016;2022-11-24T03:44:20;95554.81;;;5.39;100.00
706;BME280;21234;48.690;9.016;2022-11-24T03:46:46;95548.03;;;5.37;100.00
706;BME280;21234;48.690;9.016;2022-11-24T03:49:13;95559.03;;;5.35;100.00
706;BME280;21234;48.690;9.016;2022-11-24T03:51:40;95548.59;;;5.39;100.00
706;BME280;21234;48.690;9.016;2022-11-24T03:54:08;95549.19;;;5.41;100.00
706;BME280;21234;48.690;9.016;2022-11-24T03:56:34;95554.81;;;5.39;100.00
706;BME280;21234;48.690;9.016;2022-11-24T03:59:01;95550.34;;;5.33;100.00
706;BME280;21234;48.690;9.016;2022-11-24T04:01:28;95554.94;;;5.33;100.00
706;BME280;21234;48.690;9.016;2022-11-24T04:03:55;95558.91;;;5.42;100.00
706;BME280;21234;48.690;9.016;2022-11-24T04:06:22;95566.19;;;5.42;100.00
706;BME280;21234;48.690;9.016;2022-11-24T04:08:48;95559.16;;;5.40;100.00
706;BME280;21234;48.690;9.016;2022-11-24T04:11:17;95563.84;;;5.45;100.00
706;BME280;21234;48.690;9.016;2022-11-24T04:13:57;95564.78;;;5.51;100.00
706;BME280;21234;48.690;9.016;2022-11-24T04:16:24;95571.81;;;5.52;100.00
706;BME280;21234;48.690;9.016;2022-11-24T04:18:51;95578.47;;;5.61;100.00
706;BME280;21234;48.690;9.016;2022-11-24T04:21:18;95582.69;;;5.68;100.00
706;BME280;21234;48.690;9.016;2022-11-24T04:23:44;95589.38;;;5.78;100.00
706;BME280;21234;48.690;9.016;2022-11-24T04:26:11;95585.38;;;5.80;100.00
706;BME280;21234;48.690;9.016;2022-11-24T04:28:40;95580.94;;;5.74;100.00
706;BME280;21234;48.690;9.016;2022-11-24T04:31:06;95580.94;;;5.74;100.00
706;BME280;21234;48.690;9.016;2022-11-24T04:33:33;95581.41;;;5.71;100.00
706;BME280;21234;48.690;9.016;2022-11-24T04:36:00;95585.97;;;5.70;100.00
706;BME280;21234;48.690;9.016;2022-11-24T04:38:26;95586.22;;;5.69;100.00
706;BME280;21234;48.690;9.016;2022-11-24T04:40:53;95589.59;;;5.64;100.00
706;BME280;21234;48.690;9.016;2022-11-24T04:43:20;95587.63;;;5.60;100.00
706;BME280;21234;48.690;9.016;2022-11-24T04:45:48;95591.47;;;5.64;100.00
706;BME280;21234;48.690;9.016;2022-11-24T04:48:14;95600.38;;;5.53;100.00
706;BME280;21234;48.690;9.016;2022-11-24T04:50:41;95597.47;;;5.54;100.00
706;BME280;21234;48.690;9.016;2022-11-24T04:53:09;95608.97;;;5.50;100.00
706;BME280;21234;48.690;9.016;2022-11-24T04:55:37;95603.34;;;5.51;100.00
706;BME280;21234;48.690;9.016;2022-11-24T04:58:05;95593.84;;;5.49;100.00
706;BME280;21234;48.690;9.016;2022-11-24T05:00:33;95595.97;;;5.47;100.00
706;BME280;21234;48.690;9.016;2022-11-24T05:03:01;95605.09;;;5.46;100.00
706;BME280;21234;48.690;9.016;2022-11-24T05:05:28;95611.19;;;5.41;100.00
706;BME280;21234;48.690;9.016;2022-11-24T05:07:54;95617.03;;;5.38;100.00
706;BME280;21234;48.690;9.016;2022-11-24T05:10:21;95613.75;;;5.36;100.00
706;BME280;21234;48.690;9.016;2022-11-24T05:13:05;95619.13;;;5.24;100.00
706;BME280;21234;48.690;9.016;2022-11-24T05:15:33;95618.66;;;5.27;100.00
706;BME280;21234;48.690;9.016;2022-11-24T05:18:02;95622.41;;;5.26;100.00
706;BME280;21234;48.690;9.016;2022-11-24T05:20:29;95624.50;;;5.24;100.00
706;BME280;21234;48.690;9.016;2022-11-24T05:23:00;95615.84;;;5.22;100.00
706;BME280;21234;48.690;9.016;2022-11-24T05:25:27;95619.34;;;5.23;100.00
706;BME280;21234;48.690;9.016;2022-11-24T05:27:53;95623.34;;;5.20;100.00
706;BME280;21234;48.690;9.016;2022-11-24T05:30:20;95614.78;;;5.23;100.00
706;BME280;21234;48.690;9.016;2022-11-24T05:32:47;95627.66;;;5.21;100.00
706;BME280;21234;48.690;9.016;2022-11-24T05:35:15;95619.13;;;5.24;100.00
706;BME280;21234;48.690;9.016;2022-11-24T05:37:43;95619.25;;;5.18;100.00
706;BME280;21234;48.690;9.016;2022-11-24T05:40:10;95617.84;;;5.15;100.00
706;BME280;21234;48.690;9.016;2022-11-24T05:42:36;95623.59;;;5.19;100.00
706;BME280;21234;48.690;9.016;2022-11-24T05:45:08;95624.97;;;5.21;100.00
706;BME280;21234;48.690;9.016;2022-11-24T05:47:36;95617.72;;;5.22;100.00
706;BME280;21234;48.690;9.016;2022-11-24T05:50:03;95620.19;;;5.23;100.00
706;BME280;21234;48.690;9.016;2022-11-24T05:52:31;95620.41;;;5.22;100.00
706;BME280;21234;48.690;9.016;2022-11-24T05:54:58;95628.16;;;5.30;100.00
706;BME280;21234;48.690;9.016;2022-11-24T05:57:25;95615.28;;;5.32;100.00
706;BME280;21234;48.690;9.016;2022-11-24T05:59:51;95619.97;;;5.36;100.00
706;BME280;21234;48.690;9.016;2022-11-24T06:02:18;95625.94;;;5.38;100.00
706;BME280;21234;48.690;9.016;2022-11-24T06:04:45;95618.91;;;5.37;100.00
706;BME280;21234;48.690;9.016;2022-11-24T06:07:11;95614.25;;;5.45;100.00
706;BME280;21234;48.690;9.016;2022-11-24T06:09:40;95616.13;;;5.44;100.00
706;BME280;21234;48.690;9.016;2022-11-24T06:12:08;95617.53;;;5.47;100.00
706;BME280;21234;48.690;9.016;2022-11-24T06:14:35;95627.84;;;5.50;100.00
706;BME280;21234;48.690;9.016;2022-11-24T06:17:03;95632.84;;;5.58;100.00
706;BME280;21234;48.690;9.016;2022-11-24T06:19:30;95624.91;;;5.51;100.00
706;BME280;21234;48.690;9.016;2022-11-24T06:21:57;95631.13;;;5.52;100.00
706;BME280;21234;48.690;9.016;2022-11-24T06:24:23;95637.66;;;5.56;100.00
706;BME280;21234;48.690;9.016;2022-11-24T06:26:52;95645.28;;;5.59;100.00
706;BME280;21234;48.690;9.016;2022-11-24T06:29:18;95648.56;;;5.61;100.00
706;BME280;21234;48.690;9.016;2022-11-24T06:31:45;95649.88;;;5.58;100.00
706;BME280;21234;48.690;9.016;2022-11-24T06:34:12;95644.00;;;5.61;100.00
706;BME280;21234;48.690;9.016;2022-11-24T06:36:39;95648.00;;;5.59;100.00
706;BME280;21234;48.690;9.016;2022-11-24T06:39:06;95655.63;;;5.62;100.00
706;BME280;21234;48.690;9.016;2022-11-24T06:41:33;95654.56;;;5.63;100.00
706;BME280;21234;48.690;9.016;2022-11-24T06:44:03;95658.44;;;5.67;100.00
706;BME280;21234;48.690;9.016;2022-11-24T06:46:30;95666.06;;;5.70;100.00
706;BME280;21234;48.690;9.016;2022-11-24T06:48:57;95668.06;;;5.74;100.00
706;BME280;21234;48.690;9.016;2022-11-24T06:51:25;95663.84;;;5.79;100.00
706;BME280;21234;48.690;9.016;2022-11-24T06:53:52;95671.94;;;5.79;100.00
706;BME280;21234;48.690;9.016;2022-11-24T06:56:19;95667.59;;;5.78;100.00
706;BME280;21234;48.690;9.016;2022-11-24T06:58:47;95681.31;;;5.76;100.00
706;BME280;21234;48.690;9.016;2022-11-24T07:01:16;95679.78;;;5.80;100.00
706;BME280;21234;48.690;9.016;2022-11-24T07:03:44;95678.72;;;5.81;100.00
706;BME280;21234;48.690;9.016;2022-11-24T07:06:12;95696.19;;;5.79;100.00
706;BME280;21234;48.690;9.016;2022-11-24T07:08:39;95701.72;;;5.84;100.00
706;BME280;21234;48.690;9.016;2022-11-24T07:11:08;95701.38;;;5.80;100.00
706;BME280;21234;48.690;9.016;2022-11-24T07:13:35;95704.75;;;5.76;100.00
706;BME280;21234;48.690;9.016;2022-11-24T07:16:10;95709.09;;;5.77;100.00
706;BME280;21234;48.690;9.016;2022-11-24T07:18:38;95714.72;;;5.75;100.00
706;BME280;21234;48.690;9.016;2022-11-24T07:21:05;95726.66;;;5.67;100.00
706;BME280;21234;48.690;9.016;2022-11-24T07:23:32;95726.66;;;5.67;100.00
706;BME280;21234;48.690;9.016;2022-11-24T07:26:00;95734.16;;;5.65;100.00
706;BME280;21234;48.690;9.016;2022-11-24T07:28:27;95748.47;;;5.66;100.00
706;BME280;21234;48.690;9.016;2022-11-24T07:30:55;95756.88;;;5.58;100.00
706;BME280;21234;48.690;9.016;2022-11-24T07:33:22;95759.94;;;5.61;100.00
706;BME280;21234;48.690;9.016;2022-11-24T07:35:52;95771.56;;;5.62;100.00
706;BME280;21234;48.690;9.016;2022-11-24T07:38:19;95770.50;;;5.51;100.00
706;BME280;21234;48.690;9.016;2022-11-24T07:40:46;95782.09;;;5.52;100.00
706;BME280;21234;48.690;9.016;2022-11-24T07:43:13;95782.81;;;5.59;100.00
706;BME280;21234;48.690;9.016;2022-11-24T07:45:39;95789.84;;;5.60;100.00
706;BME280;21234;48.690;9.016;2022-11-24T07:48:06;95781.03;;;5.53;100.00
706;BME280;21234;48.690;9.016;2022-11-24T07:50:34;95782.34;;;5.50;100.00
706;BME280;21234;48.690;9.016;2022-11-24T07:53:02;95783.47;;;5.43;100.00
706;BME280;21234;48.690;9.016;2022-11-24T07:55:29;95792.03;;;5.39;100.00
706;BME280;21234;48.690;9.016;2022-11-24T07:57:58;95789.69;;;5.43;100.00
706;BME280;21234;48.690;9.016;2022-11-24T08:00:25;95799.28;;;5.39;100.00
706;BME280;21234;48.690;9.016;2022-11-24T08:02:52;95795.31;;;5.42;100.00
706;BME280;21234;48.690;9.016;2022-11-24T08:05:20;95793.06;;;5.38;100.00
706;BME280;21234;48.690;9.016;2022-11-24T08:07:46;95770.22;;;5.41;100.00
706;BME280;21234;48.690;9.016;2022-11-24T08:10:15;95771.28;;;5.40;100.00
706;BME280;21234;48.690;9.016;2022-11-24T08:12:42;95769.53;;;5.46;100.00
706;BME280;21234;48.690;9.016;2022-11-24T08:15:09;95776.81;;;5.45;100.00
706;BME280;21234;48.690;9.016;2022-11-24T08:17:36;95780.69;;;5.49;100.00
706;BME280;21234;48.690;9.016;2022-11-24T08:20:03;95790.50;;;5.44;100.00
706;BME280;21234;48.690;9.016;2022-11-24T08:22:30;95784.06;;;5.45;100.00
706;BME280;21234;48.690;9.016;2022-11-24T08:24:57;95796.63;;;5.51;100.00
706;BME280;21234;48.690;9.016;2022-11-24T08:27:25;95793.94;;;5.51;100.00
706;BME280;21234;48.690;9.016;2022-11-24T08:29:51;95796.41;;;5.52;100.00
706;BME280;21234;48.690;9.016;2022-11-24T08:32:18;95802.25;;;5.49;100.00
706;BME280;21234;48.690;9.016;2022-11-24T08:34:45;95806.72;;;5.55;100.00
706;BME280;21234;48.690;9.016;2022-11-24T08:37:11;95815.81;;;5.43;100.00
706;BME280;21234;48.690;9.016;2022-11-24T08:39:38;95812.69;;;5.46;100.00
706;BME280;21234;48.690;9.016;2022-11-24T08:42:05;95807.81;;;5.36;100.00
706;BME280;21234;48.690;9.016;2022-11-24T08:44:33;95807.75;;;5.43;100.00
706;BME280;21234;48.690;9.016;2022-11-24T08:47:00;95815.13;;;5.47;100.00
706;BME280;21234;48.690;9.016;2022-11-24T08:49:26;95815.28;;;5.52;100.00
706;BME280;21234;48.690;9.016;2022-11-24T08:51:55;95818.00;;;5.64;100.00
706;BME280;21234;48.690;9.016;2022-11-24T08:54:24;95811.47;;;5.71;100.00
706;BME280;21234;48.690;9.016;2022-11-24T08:56:51;95824.75;;;5.55;100.00
706;BME280;21234;48.690;9.016;2022-11-24T08:59:17;95815.19;;;5.70;100.00
706;BME280;21234;48.690;9.016;2022-11-24T09:01:45;95829.66;;;5.76;100.00
706;BME280;21234;48.690;9.016;2022-11-24T09:04:13;95828.22;;;5.73;100.00
706;BME280;21234;48.690;9.016;2022-11-24T09:06:40;95821.97;;;5.91;100.00
706;BME280;21234;48.690;9.016;2022-11-24T09:09:08;95826.19;;;5.99;100.00
706;BME280;21234;48.690;9.016;2022-11-24T09:11:35;95828.06;;;5.98;100.00
706;BME280;21234;48.690;9.016;2022-11-24T09:14:02;95835.84;;;6.06;100.00
706;BME280;21234;48.690;9.016;2022-11-24T09:16:29;95842.41;;;6.11;100.00
706;BME280;21234;48.690;9.016;2022-11-24T09:18:59;95834.66;;;6.02;100.00
706;BME280;21234;48.690;9.016;2022-11-24T09:21:27;95845.13;;;6.11;100.00
706;BME280;21234;48.690;9.016;2022-11-24T09:23:54;95850.63;;;6.04;100.00
706;BME280;21234;48.690;9.016;2022-11-24T09:26:23;95855.09;;;6.10;100.00
706;BME280;21234;48.690;9.016;2022-11-24T09:28:51;95861.22;;;6.17;100.00
706;BME280;21234;48.690;9.016;2022-11-24T09:31:21;95857.69;;;6.17;100.00
706;BME280;21234;48.690;9.016;2022-11-24T09:33:48;95862.00;;;6.18;100.00
706;BME280;21234;48.690;9.016;2022-11-24T09:36:16;95863.31;;;6.27;100.00
706;BME280;21234;48.690;9.016;2022-11-24T09:38:43;95874.44;;;6.19;100.00
706;BME280;21234;48.690;9.016;2022-11-24T09:41:34;95869.75;;;6.26;100.00
706;BME280;21234;48.690;9.016;2022-11-24T09:44:07;95878.47;;;6.28;100.00
706;BME280;21234;48.690;9.016;2022-11-24T09:49:12;95881.75;;;6.53;100.00
706;BME280;21234;48.690;9.016;2022-11-24T09:51:43;95887.50;;;6.57;100.00
706;BME280;21234;48.690;9.016;2022-11-24T09:54:14;95884.00;;;6.68;100.00
706;BME280;21234;48.690;9.016;2022-11-24T09:56:42;95898.69;;;6.60;100.00
706;BME280;21234;48.690;9.016;2022-11-24T09:59:14;95900.66;;;6.53;99.87
706;BME280;21234;48.690;9.016;2022-11-24T10:01:42;95900.44;;;6.43;99.40
706;BME280;21234;48.690;9.016;2022-11-24T10:04:13;95891.16;;;6.39;100.00
706;BME280;21234;48.690;9.016;2022-11-24T10:06:47;95904.88;;;6.37;100.00
706;BME280;21234;48.690;9.016;2022-11-24T10:09:37;95894.91;;;6.38;100.00
706;BME280;21234;48.690;9.016;2022-11-24T10:12:18;95897.97;;;6.53;100.00
706;BME280;21234;48.690;9.016;2022-11-24T10:20:51;95892.34;;;6.66;100.00
706;BME280;21234;48.690;9.016;2022-11-24T10:23:41;95887.88;;;6.60;100.00
706;BME280;21234;48.690;9.016;2022-11-24T10:26:17;95890.00;;;6.70;100.00
706;BME280;21234;48.690;9.016;2022-11-24T10:28:47;95894.91;;;6.96;100.00
706;BME280;21234;48.690;9.016;2022-11-24T10:31:22;95892.78;;;7.10;100.00
706;BME280;21234;48.690;9.016;2022-11-24T10:33:49;95895.25;;;7.12;100.00
706;BME280;21234;48.690;9.016;2022-11-24T10:36:19;95909.00;;;6.98;100.00
706;BME280;21234;48.690;9.016;2022-11-24T10:38:52;95907.47;;;7.14;100.00
706;BME280;21234;48.690;9.016;2022-11-24T10:41:26;95902.31;;;7.13;100.00
706;BME280;21234;48.690;9.016;2022-11-24T10:43:56;95893.09;;;7.25;100.00
706;BME280;21234;48.690;9.016;2022-11-24T10:46:25;95899.56;;;7.24;100.00
706;BME280;21234;48.690;9.016;2022-11-24T10:48:56;95904.63;;;7.21;100.00
706;BME280;21234;48.690;9.016;2022-11-24T10:51:45;95898.75;;;7.24;100.00
706;BME280;21234;48.690;9.016;2022-11-24T10:54:17;95895.94;;;7.19;100.00
706;BME280;21234;48.690;9.016;2022-11-24T10:56:46;95894.63;;;7.21;100.00
706;BME280;21234;48.690;9.016;2022-11-24T10:59:30;95899.94;;;7.16;100.00
706;BME280;21234;48.690;9.016;2022-11-24T11:01:58;95891.81;;;7.16;100.00
706;BME280;21234;48.690;9.016;2022-11-24T11:04:26;95882.31;;;7.14;100.00
706;BME280;21234;48.690;9.016;2022-11-24T11:07:14;95892.28;;;7.25;100.00
706;BME280;21234;48.690;9.016;2022-11-24T11:09:44;95895.56;;;7.27;100.00
706;BME280;21234;48.690;9.016;2022-11-24T11:12:18;95887.69;;;7.37;100.00
706;BME280;21234;48.690;9.016;2022-11-24T11:14:46;95893.44;;;7.40;99.27
706;BME280;21234;48.690;9.016;2022-11-24T11:17:33;95889.22;;;7.33;98.20
706;BME280;21234;48.690;9.016;2022-11-24T11:20:02;95891.38;;;7.48;98.15
706;BME280;21234;48.690;9.016;2022-11-24T11:22:31;95896.53;;;7.61;97.35
706;BME280;21234;48.690;9.016;2022-11-24T11:25:06;95895.47;;;7.62;96.54
706;BME280;21234;48.690;9.016;2022-11-24T11:27:40;95896.59;;;7.78;96.85
706;BME280;21234;48.690;9.016;2022-11-24T11:30:25;95899.56;;;7.76;96.06
706;BME280;21234;48.690;9.016;2022-11-24T11:32:55;95897.56;;;7.71;94.74
706;BME280;21234;48.690;9.016;2022-11-24T11:35:23;95893.25;;;7.87;97.23
706;BME280;21234;48.690;9.016;2022-11-24T11:37:52;95900.31;;;7.88;94.43
706;BME280;21234;48.690;9.016;2022-11-24T11:40:25;95900.97;;;7.95;93.64
706;BME280;21234;48.690;9.016;2022-11-24T11:42:55;95899.06;;;8.07;93.79
706;BME280;21234;48.690;9.016;2022-11-24T11:45:27;95899.06;;;8.24;93.83
706;BME280;21234;48.690;9.016;2022-11-24T11:48:05;95895.78;;;8.22;89.54
706;BME280;21234;48.690;9.016;2022-11-24T11:50:42;95902.34;;;8.26;89.96
706;BME280;21234;48.690;9.016;2022-11-24T11:53:21;95902.22;;;8.33;88.85
706;BME280;21234;48.690;9.016;2022-11-24T11:56:01;95902.94;;;8.28;88.58
706;BME280;21234;48.690;9.016;2022-11-24T12:01:48;95905.28;;;8.36;89.31
706;BME280;21234;48.690;9.016;2022-11-24T12:04:22;95903.38;;;8.54;87.09
706;BME280;21234;48.690;9.016;2022-11-24T12:06:59;95898.72;;;8.66;84.40
706;BME280;21234;48.690;9.016;2022-11-24T12:09:37;95908.94;;;8.81;83.01
706;BME280;21234;48.690;9.016;2022-11-24T12:12:24;95916.41;;;8.90;81.22
706;BME280;21234;48.690;9.016;2022-11-24T12:15:00;95919.94;;;8.91;81.24
706;BME280;21234;48.690;9.016;2022-11-24T12:17:37;95919.97;;;8.74;77.19
706;BME280;21234;48.690;9.016;2022-11-24T12:20:16;95931.81;;;8.68;78.53
706;BME280;21234;48.690;9.016;2022-11-24T12:22:48;95929.88;;;8.52;77.98
706;BME280;21234;48.690;9.016;2022-11-24T12:25:24;95922.34;;;8.37;79.97
706;BME280;21234;48.690;9.016;2022-11-24T12:28:04;95935.91;;;8.25;79.73
706;BME280;21234;48.690;9.016;2022-11-24T12:30:40;95940.88;;;8.17;80.08
706;BME280;21234;48.690;9.016;2022-11-24T12:33:19;95939.72;;;8.13;78.26
706;BME280;21234;48.690;9.016;2022-11-24T12:35:51;95928.59;;;8.09;79.33
706;BME280;21234;48.690;9.016;2022-11-24T12:38:37;95943.53;;;8.12;79.88
706;BME280;21234;48.690;9.016;2022-11-24T12:41:23;95934.16;;;8.02;79.83
706;BME280;21234;48.690;9.016;2022-11-24T12:43:57;95934.97;;;8.03;80.98
706;BME280;21234;48.690;9.016;2022-11-24T12:46:30;95940.38;;;8.03;79.65
706;BME280;21234;48.690;9.016;2022-11-24T12:49:06;95939.91;;;8.06;80.43
706;BME280;21234;48.690;9.016;2022-11-24T12:51:41;95935.56;;;8.22;79.77
706;BME280;21234;48.690;9.016;2022-11-24T12:54:12;95930.63;;;8.47;79.21
706;BME280;21234;48.690;9.016;2022-11-24T12:56:42;95924.56;;;8.73;79.23
706;BME280;21234;48.690;9.016;2022-11-24T12:59:21;95923.00;;;8.94;77.96
706;BME280;21234;48.690;9.016;2022-11-24T13:02:02;95929.59;;;9.20;76.24
706;BME280;21234;48.690;9.016;2022-11-24T13:04:36;95931.25;;;9.43;71.46
706;BME280;21234;48.690;9.016;2022-11-24T13:07:09;95937.41;;;9.55;68.55
706;BME280;21234;48.690;9.016;2022-11-24T13:12:55;95942.69;;;9.45;68.16
706;BME280;21234;48.690;9.016;2022-11-24T13:15:24;95940.78;;;9.46;66.93
706;BME280;21234;48.690;9.016;2022-11-24T13:17:51;95933.94;;;9.60;70.62
706;BME280;21234;48.690;9.016;2022-11-24T13:20:23;95946.69;;;9.59;68.19
706;BME280;21234;48.690;9.016;2022-11-24T13:22:51;95940.38;;;9.54;67.04
706;BME280;21234;48.690;9.016;2022-11-24T13:25:20;95941.97;;;9.71;69.01
706;BME280;21234;48.690;9.016;2022-11-24T13:27:49;95953.44;;;9.78;69.33
706;BME280;21234;48.690;9.016;2022-11-24T13:33:35;95972.75;;;9.22;71.28
706;BME280;21234;48.690;9.016;2022-11-24T13:36:32;95964.56;;;9.00;70.73
706;BME280;21234;48.690;9.016;2022-11-24T13:39:01;95961.75;;;8.78;69.49
706;BME280;21234;48.690;9.016;2022-11-24T13:44:51;95966.78;;;8.69;71.41
706;BME280;21234;48.690;9.016;2022-11-24T13:47:38;95959.00;;;8.73;71.50
706;BME280;21234;48.690;9.016;2022-11-24T13:50:09;95965.06;;;8.63;71.79
706;BME280;21234;48.690;9.016;2022-11-24T13:52:41;95971.28;;;8.64;72.37
706;BME280;21234;48.690;9.016;2022-11-24T13:55:33;95956.34;;;8.61;72.65
706;BME280;21234;48.690;9.016;2022-11-24T13:58:28;95948.69;;;8.58;71.03
706;BME280;21234;48.690;9.016;2022-11-24T14:01:09;95955.09;;;8.52;72.69